createdAt,value
2023-01-16T00:02:33.513Z,19.00
2023-01-16T00:07:31.061Z,21.83
2023-01-16T00:12:27.798Z,22.80
2023-01-16T00:17:24.570Z,19.65
2023-01-16T00:22:21.388Z,16.83
2023-01-16T00:27:18.927Z,17.88
2023-01-16T00:32:15.987Z,16.02
2023-01-16T00:37:12.905Z,15.93
2023-01-16T00:42:09.840Z,15.35
2023-01-16T00:47:07.493Z,15.57
2023-01-16T00:52:04.939Z,13.45
2023-01-16T00:57:01.776Z,16.23
2023-01-16T01:01:58.683Z,14.77
2023-01-16T01:06:56.405Z,13.25
2023-01-16T01:11:53.238Z,15.43
2023-01-16T01:16:50.045Z,13.63
2023-01-16T01:21:46.999Z,10.32
2023-01-16T01:26:44.442Z,9.85
2023-01-16T01:31:41.290Z,12.80
2023-01-16T01:36:38.108Z,11.60
2023-01-16T01:41:34.866Z,11.57
2023-01-16T01:46:41.232Z,9.48
2023-01-16T01:51:42.958Z,10.10
2023-01-16T01:56:44.126Z,9.88
2023-01-16T02:01:41.645Z,9.75
2023-01-16T02:06:44.787Z,11.18
2023-01-16T02:11:49.277Z,13.52
2023-01-16T02:17:06.771Z,11.93
2023-01-16T02:22:36.758Z,11.32
2023-01-16T02:27:53.525Z,10.75
2023-01-16T02:33:05.155Z,11.27
2023-01-16T02:38:11.418Z,11.30
2023-01-16T02:43:21.026Z,12.63
2023-01-16T02:48:28.266Z,12.45
2023-01-16T02:53:30.011Z,11.02
2023-01-16T02:58:28.563Z,11.52
2023-01-16T03:03:38.605Z,11.45
2023-01-16T03:08:44.941Z,10.80
2023-01-16T03:13:56.043Z,14.98
2023-01-16T03:19:06.392Z,11.80
2023-01-16T03:24:08.823Z,14.40
2023-01-16T03:29:14.162Z,16.27
2023-01-16T03:34:23.365Z,16.83
2023-01-16T03:39:25.440Z,15.77
2023-01-16T03:44:29.167Z,13.88
2023-01-16T03:49:32.631Z,16.58
2023-01-16T03:54:38.106Z,15.57
2023-01-16T03:59:36.416Z,15.57
2023-01-16T04:04:41.327Z,14.68
2023-01-16T04:09:43.802Z,14.52
2023-01-16T04:14:42.829Z,13.43
2023-01-16T04:19:40.365Z,14.25
2023-01-16T04:24:37.352Z,17.75
2023-01-16T04:29:34.212Z,15.48
2023-01-16T04:34:30.995Z,14.15
2023-01-16T04:39:28.529Z,15.52
2023-01-16T04:44:25.916Z,15.95
2023-01-16T04:49:22.655Z,16.95
2023-01-16T04:54:20.725Z,17.73
2023-01-16T04:59:18.683Z,18.05
2023-01-16T05:04:16.649Z,16.02
2023-01-16T05:09:13.610Z,15.25
2023-01-16T05:14:11.264Z,17.77
2023-01-16T05:19:10.081Z,13.80
2023-01-16T05:24:07.255Z,15.98
2023-01-16T05:29:12.500Z,31.95
2023-01-16T05:34:10.589Z,15.07
2023-01-16T05:39:07.441Z,13.15
2023-01-16T05:44:05.379Z,13.68
2023-01-16T05:49:02.590Z,15.30
2023-01-16T05:54:00.163Z,15.77
2023-01-16T05:58:57.693Z,32.63
2023-01-16T06:03:54.720Z,36.85
2023-01-16T06:08:55.597Z,34.28
2023-01-16T06:13:53.235Z,30.42
2023-01-16T06:18:50.140Z,40.83
2023-01-16T06:23:46.968Z,38.33
2023-01-16T06:28:43.995Z,21.08
2023-01-16T06:33:41.444Z,17.20
2023-01-16T06:38:38.264Z,14.60
2023-01-16T06:43:35.237Z,12.98
2023-01-16T06:48:32.408Z,14.65
2023-01-16T06:53:30.332Z,13.93
2023-01-16T06:58:27.402Z,14.50
2023-01-16T07:03:25.139Z,12.20
2023-01-16T07:08:24.094Z,11.18
2023-01-16T07:13:27.378Z,14.20
2023-01-16T07:18:42.240Z,10.63
2023-01-16T07:23:42.766Z,13.23
2023-01-16T07:28:40.654Z,12.45
2023-01-16T07:33:37.598Z,9.73
2023-01-16T07:38:34.435Z,10.93
2023-01-16T07:43:31.320Z,10.50
2023-01-16T07:48:28.950Z,9.70
2023-01-16T07:53:27.488Z,10.98
2023-01-16T07:58:24.497Z,10.13
2023-01-16T08:03:21.620Z,9.13
2023-01-16T08:08:20.047Z,10.85
2023-01-16T08:13:16.909Z,9.70
2023-01-16T08:18:23.075Z,9.48
2023-01-16T08:23:25.817Z,10.02
2023-01-16T08:28:25.343Z,11.20
2023-01-16T08:33:22.170Z,10.30
2023-01-16T08:38:19.107Z,9.32
2023-01-16T08:43:43.180Z,11.10
2023-01-16T08:49:02.256Z,7.85
2023-01-16T08:54:02.006Z,8.52
2023-01-16T08:58:59.627Z,10.75
2023-01-16T09:03:56.481Z,17.00
2023-01-16T09:08:53.255Z,25.23
2023-01-16T09:13:50.621Z,25.60
2023-01-16T09:18:53.113Z,25.08
2023-01-16T09:23:53.268Z,23.73
2023-01-16T09:28:50.156Z,20.33
2023-01-16T09:33:48.921Z,33.47
2023-01-16T09:38:48.521Z,23.85
2023-01-16T09:43:50.421Z,23.30
2023-01-16T09:48:58.062Z,23.75
2023-01-16T09:54:20.884Z,23.33
2023-01-16T09:59:26.245Z,25.13
2023-01-16T10:04:28.313Z,18.45
2023-01-16T10:09:32.875Z,16.98
2023-01-16T10:15:03.481Z,20.55
2023-01-16T10:20:30.592Z,19.25
2023-01-16T10:25:32.686Z,21.88
2023-01-16T10:30:36.734Z,22.25
2023-01-16T10:35:42.961Z,16.60
2023-01-16T10:40:42.366Z,18.08
2023-01-16T10:45:58.120Z,19.83
2023-01-16T10:51:06.338Z,17.98
2023-01-16T10:56:04.883Z,18.35
2023-01-16T11:01:04.192Z,19.65
2023-01-16T11:06:12.968Z,21.40
2023-01-16T11:11:27.136Z,21.02
2023-01-16T11:16:49.478Z,21.15
2023-01-16T11:21:51.457Z,18.98
2023-01-16T11:26:53.703Z,17.45
2023-01-16T11:31:57.114Z,18.95
2023-01-16T11:36:55.674Z,23.35
2023-01-16T11:41:57.021Z,19.55
2023-01-16T11:46:59.099Z,18.67
2023-01-16T11:52:03.577Z,19.85
2023-01-16T11:57:21.526Z,22.90
2023-01-16T12:02:42.741Z,24.05
2023-01-16T12:07:54.442Z,27.10
2023-01-16T12:13:21.391Z,29.27
2023-01-16T12:18:29.455Z,28.85
2023-01-16T12:23:53.356Z,22.77
2023-01-16T12:29:07.049Z,18.73
2023-01-16T12:34:19.813Z,25.75
2023-01-16T12:39:27.189Z,27.95
2023-01-16T12:44:41.694Z,23.85
2023-01-16T12:49:56.735Z,27.20
2023-01-16T12:55:16.840Z,25.23
2023-01-16T13:00:18.145Z,29.95
2023-01-16T13:05:19.350Z,22.92
2023-01-16T13:10:41.556Z,37.70
2023-01-16T13:15:44.280Z,27.35
2023-01-16T13:20:42.868Z,35.03
2023-01-16T13:25:43.684Z,25.70
2023-01-16T13:30:45.213Z,22.38
2023-01-16T13:36:00.141Z,30.00
2023-01-16T13:41:19.907Z,28.40
2023-01-16T13:46:17.991Z,41.97
2023-01-16T13:51:23.078Z,45.33
2023-01-16T13:56:23.220Z,31.10
2023-01-16T14:01:32.528Z,27.67
2023-01-16T14:06:29.443Z,36.25
2023-01-16T14:11:34.772Z,39.70
2023-01-16T14:16:35.739Z,24.98
2023-01-16T14:21:42.509Z,33.50
2023-01-16T14:26:45.601Z,28.52
2023-01-16T14:31:45.607Z,27.75
2023-01-16T14:36:45.263Z,27.63
2023-01-16T14:42:00.219Z,27.45
2023-01-16T14:47:28.593Z,30.98
2023-01-16T14:53:05.995Z,24.45
2023-01-16T14:58:07.194Z,21.60
2023-01-16T15:03:09.129Z,21.15
2023-01-16T15:08:06.920Z,21.73
2023-01-16T15:13:21.447Z,20.85
2023-01-16T15:18:38.888Z,23.80
2023-01-16T15:23:37.782Z,25.98
2023-01-16T15:28:44.915Z,23.65
2023-01-16T15:33:45.661Z,27.13
2023-01-16T15:38:45.636Z,24.77
2023-01-16T15:44:06.807Z,25.25
2023-01-16T15:49:29.402Z,28.23
2023-01-16T15:54:27.310Z,40.10
2023-01-16T15:59:27.341Z,39.90
2023-01-16T16:04:24.552Z,30.23
2023-01-16T16:09:25.259Z,36.60
2023-01-16T16:14:46.255Z,35.63
2023-01-16T16:19:43.354Z,37.40
2023-01-16T16:24:41.007Z,39.95
2023-01-16T16:29:38.912Z,36.45
2023-01-16T16:34:36.965Z,37.13
2023-01-16T16:39:49.813Z,42.25
2023-01-16T16:45:09.319Z,36.65
2023-01-16T16:50:30.478Z,33.15
2023-01-16T16:55:30.445Z,32.67
2023-01-16T17:00:30.713Z,35.50
2023-01-16T17:05:28.472Z,36.17
2023-01-16T17:10:36.831Z,29.45
2023-01-16T17:15:34.466Z,35.03
2023-01-16T17:20:32.383Z,31.35
2023-01-16T17:25:29.458Z,31.60
2023-01-16T17:30:26.437Z,29.05
2023-01-16T17:35:24.102Z,29.88
2023-01-16T17:40:21.022Z,33.33
2023-01-16T17:45:45.686Z,35.00
2023-01-16T17:50:43.446Z,29.17
2023-01-16T17:55:56.055Z,29.90
2023-01-16T18:00:55.917Z,27.25
2023-01-16T18:05:55.363Z,30.35
2023-01-16T18:10:52.220Z,28.83
2023-01-16T18:16:07.173Z,33.03
2023-01-16T18:21:29.337Z,24.38
2023-01-16T18:26:26.910Z,35.95
2023-01-16T18:31:23.872Z,27.73
2023-01-16T18:36:24.504Z,35.17
2023-01-16T18:41:39.607Z,25.95
2023-01-16T18:46:54.736Z,23.70
2023-01-16T18:52:10.538Z,21.10
2023-01-16T18:57:30.890Z,22.88
2023-01-16T19:02:39.823Z,22.80
2023-01-16T19:07:44.453Z,18.73
2023-01-16T19:12:41.723Z,20.40
2023-01-16T19:17:38.594Z,20.00
2023-01-16T19:22:35.475Z,21.85
2023-01-16T19:27:36.239Z,16.95
2023-01-16T19:32:33.205Z,25.08
2023-01-16T19:37:30.127Z,24.10
2023-01-16T19:42:45.138Z,23.02
2023-01-16T19:47:42.780Z,37.83
2023-01-16T19:52:39.637Z,31.48
2023-01-16T19:57:36.496Z,17.13
2023-01-16T20:02:34.599Z,17.17
2023-01-16T20:07:32.286Z,23.77
2023-01-16T20:12:30.065Z,16.40
2023-01-16T20:17:40.663Z,17.50
2023-01-16T20:22:38.371Z,27.13
2023-01-16T20:27:36.038Z,27.10
2023-01-16T20:32:32.976Z,18.50
2023-01-16T20:37:30.871Z,23.40
2023-01-16T20:42:46.607Z,21.67
2023-01-16T20:47:43.393Z,23.50
2023-01-16T20:52:43.207Z,18.42
2023-01-16T20:57:40.760Z,17.27
2023-01-16T21:02:37.863Z,17.15
2023-01-16T21:07:34.984Z,22.15
2023-01-16T21:12:50.171Z,18.38
2023-01-16T21:18:05.774Z,16.70
2023-01-16T21:23:02.676Z,19.73
2023-01-16T21:28:00.877Z,20.77
2023-01-16T21:32:59.004Z,28.15
2023-01-16T21:37:55.948Z,27.45
2023-01-16T21:43:11.173Z,29.00
2023-01-16T21:48:11.178Z,27.40
2023-01-16T21:53:08.092Z,30.70
2023-01-16T21:58:05.045Z,29.88
2023-01-16T22:03:04.046Z,29.77
2023-01-16T22:08:01.584Z,26.10
2023-01-16T22:13:21.668Z,26.95
2023-01-16T22:18:21.348Z,25.48
2023-01-16T22:23:21.951Z,27.10
2023-01-16T22:28:20.481Z,26.00
2023-01-16T22:33:18.074Z,20.35
2023-01-16T22:38:14.953Z,23.25
2023-01-16T22:43:30.550Z,23.58
2023-01-16T22:48:27.581Z,25.02
2023-01-16T22:53:24.374Z,20.70
2023-01-16T22:58:23.237Z,25.13
2023-01-16T23:03:21.408Z,23.20
2023-01-16T23:08:20.388Z,26.65
2023-01-16T23:13:17.370Z,29.30
2023-01-16T23:18:15.075Z,26.00
2023-01-16T23:23:12.787Z,31.75
2023-01-16T23:28:09.712Z,31.38
2023-01-16T23:33:08.926Z,27.75
2023-01-16T23:38:06.547Z,27.23
2023-01-16T23:43:23.361Z,30.75
2023-01-16T23:48:20.705Z,31.60
2023-01-16T23:53:18.396Z,32.17
2023-01-16T23:58:15.306Z,35.30
